sensor_id;sensor_type;location;lat;lon;timestamp;pressure;altitude;pressure_sealevel;temperature;humidity
31121;BME280;17770;45.966;13.632;2023-01-30T00:00:50;101216.75;;;12.49;59.34
31121;BME280;17770;45.966;13.632;2023-01-30T00:03:17;101217.56;;;12.50;58.80
31121;BME280;17770;45.966;13.632;2023-01-30T00:05:43;101228.81;;;12.49;59.81
31121;BME280;17770;45.966;13.632;2023-01-30T00:08:09;101210.75;;;12.47;59.64
31121;BME280;17770;45.966;13.632;2023-01-30T00:10:35;101214.16;;;12.48;59.05
31121;BME280;17770;45.966;13.632;2023-01-30T00:13:00;101203.81;;;12.48;59.93
31121;BME280;17770;45.966;13.632;2023-01-30T00:15:26;101202.13;;;12.47;59.07
31121;BME280;17770;45.966;13.632;2023-01-30T00:17:52;101202.97;;;12.47;59.56
31121;BME280;17770;45.966;13.632;2023-01-30T00:20:18;101199.53;;;12.47;59.52
31121;BME280;17770;45.966;13.632;2023-01-30T00:22:44;101199.53;;;12.47;59.39
31121;BME280;17770;45.966;13.632;2023-01-30T00:25:09;101188.34;;;12.46;59.43
31121;BME280;17770;45.966;13.632;2023-01-30T00:27:35;101185.75;;;12.46;58.96
31121;BME280;17770;45.966;13.632;2023-01-30T00:30:02;101177.16;;;12.46;58.92
31121;BME280;17770;45.966;13.632;2023-01-30T00:32:30;101173.72;;;12.45;59.60
31121;BME280;17770;45.966;13.632;2023-01-30T00:34:56;101171.16;;;12.44;59.66
31121;BME280;17770;45.966;13.632;2023-01-30T00:37:22;101171.13;;;12.45;58.93
31121;BME280;17770;45.966;13.632;2023-01-30T00:39:48;101173.72;;;12.45;58.97
31121;BME280;17770;45.966;13.632;2023-01-30T00:42:14;101169.44;;;12.44;59.33
31121;BME280;17770;45.966;13.632;2023-01-30T00:44:58;101168.56;;;12.44;58.81
31121;BME280;17770;45.966;13.632;2023-01-30T00:47:43;101171.16;;;12.44;59.47
31121;BME280;17770;45.966;13.632;2023-01-30T00:50:09;101163.41;;;12.44;58.90
31121;BME280;17770;45.966;13.632;2023-01-30T00:52:35;101157.41;;;12.42;58.78
31121;BME280;17770;45.966;13.632;2023-01-30T00:55:01;101160.00;;;12.42;58.64
31121;BME280;17770;45.966;13.632;2023-01-30T00:57:27;101172.88;;;12.43;59.35
31121;BME280;17770;45.966;13.632;2023-01-30T00:59:53;101158.31;;;12.41;59.14
31121;BME280;17770;45.966;13.632;2023-01-30T01:02:19;101165.16;;;12.42;58.75
31121;BME280;17770;45.966;13.632;2023-01-30T01:04:44;101156.56;;;12.41;59.28
31121;BME280;17770;45.966;13.632;2023-01-30T01:07:11;101156.56;;;12.41;59.41
31121;BME280;17770;45.966;13.632;2023-01-30T01:09:37;101158.31;;;12.41;59.36
31121;BME280;17770;45.966;13.632;2023-01-30T01:12:04;101151.41;;;12.40;59.35
31121;BME280;17770;45.966;13.632;2023-01-30T01:14:30;101156.59;;;12.40;58.90
31121;BME280;17770;45.966;13.632;2023-01-30T01:16:55;101149.72;;;12.39;58.80
31121;BME280;17770;45.966;13.632;2023-01-30T01:19:21;101159.19;;;12.40;60.02
31121;BME280;17770;45.966;13.632;2023-01-30T01:21:47;101146.25;;;12.40;58.58
31121;BME280;17770;45.966;13.632;2023-01-30T01:24:13;101142.84;;;12.39;58.34
31121;BME280;17770;45.966;13.632;2023-01-30T01:26:39;101140.28;;;12.38;58.55
31121;BME280;17770;45.966;13.632;2023-01-30T01:29:06;101137.69;;;12.38;58.86
31121;BME280;17770;45.966;13.632;2023-01-30T01:31:35;101135.97;;;12.37;59.14
31121;BME280;17770;45.966;13.632;2023-01-30T01:34:01;101135.06;;;12.39;58.82
31121;BME280;17770;45.966;13.632;2023-01-30T01:36:27;101130.81;;;12.37;58.84
31121;BME280;17770;45.966;13.632;2023-01-30T01:38:53;101123.94;;;12.36;59.23
31121;BME280;17770;45.966;13.632;2023-01-30T01:41:19;101120.50;;;12.35;59.79
31121;BME280;17770;45.966;13.632;2023-01-30T01:44:04;101121.31;;;12.37;59.18
31121;BME280;17770;45.966;13.632;2023-01-30T01:48:57;101116.19;;;12.36;59.05
31121;BME280;17770;45.966;13.632;2023-01-30T01:54:25;101101.53;;;12.35;59.11
31121;BME280;17770;45.966;13.632;2023-01-30T01:56:43;101111.88;;;12.35;58.78
31121;BME280;17770;45.966;13.632;2023-01-30T02:01:46;101103.34;;;12.33;58.72
31121;BME280;17770;45.966;13.632;2023-01-30T02:04:12;101108.50;;;12.33;59.66
31121;BME280;17770;45.966;13.632;2023-01-30T02:06:42;101108.50;;;12.33;59.39
31121;BME280;17770;45.966;13.632;2023-01-30T02:09:08;101103.34;;;12.33;59.58
31121;BME280;17770;45.966;13.632;2023-01-30T02:14:03;101103.34;;;12.31;58.80
31121;BME280;17770;45.966;13.632;2023-01-30T02:16:29;101105.06;;;12.32;58.97
31121;BME280;17770;45.966;13.632;2023-01-30T02:18:55;101105.06;;;12.32;59.58
31121;BME280;17770;45.966;13.632;2023-01-30T02:26:44;101095.59;;;12.31;58.76
31121;BME280;17770;45.966;13.632;2023-01-30T02:29:21;101096.50;;;12.30;59.20
31121;BME280;17770;45.966;13.632;2023-01-30T02:31:56;101096.50;;;12.30;59.27
31121;BME280;17770;45.966;13.632;2023-01-30T02:42:00;101069.81;;;12.28;59.45
31121;BME280;17770;45.966;13.632;2023-01-30T02:47:14;101075.88;;;12.27;59.23
31121;BME280;17770;45.966;13.632;2023-01-30T02:49:50;101083.63;;;12.27;58.61
31121;BME280;17770;45.966;13.632;2023-01-30T02:52:17;101085.38;;;12.27;58.61
31121;BME280;17770;45.966;13.632;2023-01-30T02:54:44;101071.56;;;12.28;59.49
31121;BME280;17770;45.966;13.632;2023-01-30T02:57:20;101072.44;;;12.27;59.08
31121;BME280;17770;45.966;13.632;2023-01-30T02:59:53;101069.03;;;12.26;59.12
31121;BME280;17770;45.966;13.632;2023-01-30T03:10:06;101059.59;;;12.24;58.19
31121;BME280;17770;45.966;13.632;2023-01-30T03:15:37;101047.53;;;12.24;58.66
31121;BME280;17770;45.966;13.632;2023-01-30T03:18:06;101044.97;;;12.23;58.52
31121;BME280;17770;45.966;13.632;2023-01-30T03:20:38;101041.53;;;12.22;58.96
31121;BME280;17770;45.966;13.632;2023-01-30T03:23:05;101039.81;;;12.23;58.50
31121;BME280;17770;45.966;13.632;2023-01-30T03:25:31;101038.94;;;12.22;57.97
31121;BME280;17770;45.966;13.632;2023-01-30T03:27:58;101040.66;;;12.22;59.00
31121;BME280;17770;45.966;13.632;2023-01-30T03:30:25;101037.25;;;12.21;58.46
31121;BME280;17770;45.966;13.632;2023-01-30T03:32:57;101031.22;;;12.21;57.95
31121;BME280;17770;45.966;13.632;2023-01-30T03:35:23;101019.16;;;12.21;57.87
31121;BME280;17770;45.966;13.632;2023-01-30T03:37:49;101023.53;;;12.19;58.85
31121;BME280;17770;45.966;13.632;2023-01-30T03:40:15;101014.00;;;12.20;59.45
31121;BME280;17770;45.966;13.632;2023-01-30T03:42:43;101011.41;;;12.20;57.91
31121;BME280;17770;45.966;13.632;2023-01-30T03:45:09;101013.19;;;12.19;58.45
31121;BME280;17770;45.966;13.632;2023-01-30T03:47:36;101012.31;;;12.19;58.33
31121;BME280;17770;45.966;13.632;2023-01-30T03:50:02;101007.16;;;12.19;58.26
31121;BME280;17770;45.966;13.632;2023-01-30T03:52:30;101001.97;;;12.19;59.37
31121;BME280;17770;45.966;13.632;2023-01-30T03:54:55;101015.75;;;12.19;58.41
31121;BME280;17770;45.966;13.632;2023-01-30T03:57:21;101011.47;;;12.18;59.35
31121;BME280;17770;45.966;13.632;2023-01-30T03:59:47;101007.19;;;12.17;58.92
31121;BME280;17770;45.966;13.632;2023-01-30T04:02:14;101003.75;;;12.17;58.86
31121;BME280;17770;45.966;13.632;2023-01-30T04:04:46;101000.28;;;12.18;59.29
31121;BME280;17770;45.966;13.632;2023-01-30T04:07:12;101001.16;;;12.17;58.78
31121;BME280;17770;45.966;13.632;2023-01-30T04:09:39;100993.34;;;12.18;58.30
31121;BME280;17770;45.966;13.632;2023-01-30T04:12:05;100989.09;;;12.17;58.13
31121;BME280;17770;45.966;13.632;2023-01-30T04:14:37;100993.41;;;12.17;57.81
31121;BME280;17770;45.966;13.632;2023-01-30T04:17:17;100995.13;;;12.18;58.64
31121;BME280;17770;45.966;13.632;2023-01-30T04:20:06;100989.13;;;12.16;58.25
31121;BME280;17770;45.966;13.632;2023-01-30T04:22:34;100989.13;;;12.16;59.02
31121;BME280;17770;45.966;13.632;2023-01-30T04:25:00;100984.00;;;12.14;58.47
31121;BME280;17770;45.966;13.632;2023-01-30T04:27:26;100981.41;;;12.14;58.21
31121;BME280;17770;45.966;13.632;2023-01-30T04:30:21;100984.88;;;12.15;58.94
31121;BME280;17770;45.966;13.632;2023-01-30T04:32:51;100982.28;;;12.13;58.64
31121;BME280;17770;45.966;13.632;2023-01-30T04:35:18;100983.16;;;12.14;58.19
31121;BME280;17770;45.966;13.632;2023-01-30T04:37:44;100984.03;;;12.13;58.24
31121;BME280;17770;45.966;13.632;2023-01-30T04:40:13;100976.28;;;12.13;58.28
31121;BME280;17770;45.966;13.632;2023-01-30T04:42:38;100981.47;;;12.13;58.31
31121;BME280;17770;45.966;13.632;2023-01-30T04:45:24;100981.50;;;12.11;57.85
31121;BME280;17770;45.966;13.632;2023-01-30T04:47:51;100972.88;;;12.11;58.00
31121;BME280;17770;45.966;13.632;2023-01-30T04:50:17;100979.75;;;12.12;58.64
31121;BME280;17770;45.966;13.632;2023-01-30T04:52:43;100981.50;;;12.11;58.70
31121;BME280;17770;45.966;13.632;2023-01-30T04:55:10;100978.91;;;12.11;58.09
31121;BME280;17770;45.966;13.632;2023-01-30T04:57:35;100973.78;;;12.10;58.23
31121;BME280;17770;45.966;13.632;2023-01-30T05:00:02;100960.00;;;12.09;57.97
31121;BME280;17770;45.966;13.632;2023-01-30T05:02:28;100957.41;;;12.09;59.05
31121;BME280;17770;45.966;13.632;2023-01-30T05:04:54;100946.22;;;12.09;58.32
31121;BME280;17770;45.966;13.632;2023-01-30T05:07:20;100948.81;;;12.09;57.97
31121;BME280;17770;45.966;13.632;2023-01-30T05:09:46;100946.25;;;12.07;58.17
31121;BME280;17770;45.966;13.632;2023-01-30T05:12:12;100938.50;;;12.07;58.05
31121;BME280;17770;45.966;13.632;2023-01-30T05:14:37;100948.84;;;12.07;58.71
31121;BME280;17770;45.966;13.632;2023-01-30T05:17:05;100954.03;;;12.07;58.64
31121;BME280;17770;45.966;13.632;2023-01-30T05:19:31;100955.75;;;12.07;57.65
31121;BME280;17770;45.966;13.632;2023-01-30T05:21:57;100962.69;;;12.06;58.68
31121;BME280;17770;45.966;13.632;2023-01-30T05:24:23;100960.09;;;12.06;58.54
31121;BME280;17770;45.966;13.632;2023-01-30T05:26:49;100969.56;;;12.06;58.56
31121;BME280;17770;45.966;13.632;2023-01-30T05:29:15;100976.44;;;12.07;57.63
31121;BME280;17770;45.966;13.632;2023-01-30T05:31:41;100972.16;;;12.06;58.02
31121;BME280;17770;45.966;13.632;2023-01-30T05:34:08;100979.06;;;12.05;57.79
31121;BME280;17770;45.966;13.632;2023-01-30T05:36:35;100973.06;;;12.05;58.20
31121;BME280;17770;45.966;13.632;2023-01-30T05:39:01;100980.81;;;12.05;58.35
31121;BME280;17770;45.966;13.632;2023-01-30T05:41:27;100987.72;;;12.04;58.03
31121;BME280;17770;45.966;13.632;2023-01-30T05:43:52;100983.41;;;12.05;57.97
31121;BME280;17770;45.966;13.632;2023-01-30T05:46:18;100974.81;;;12.03;58.31
31121;BME280;17770;45.966;13.632;2023-01-30T05:48:44;100977.38;;;12.04;58.46
31121;BME280;17770;45.966;13.632;2023-01-30T05:51:20;100970.50;;;12.03;58.29
31121;BME280;17770;45.966;13.632;2023-01-30T05:53:46;100968.81;;;12.02;58.27
31121;BME280;17770;45.966;13.632;2023-01-30T05:56:12;100984.31;;;12.02;57.58
31121;BME280;17770;45.966;13.632;2023-01-30T05:58:38;100989.47;;;12.02;57.44
31121;BME280;17770;45.966;13.632;2023-01-30T06:01:05;100996.38;;;12.02;57.74
31121;BME280;17770;45.966;13.632;2023-01-30T06:03:33;100993.81;;;12.00;58.25
31121;BME280;17770;45.966;13.632;2023-01-30T06:06:00;100980.91;;;12.00;57.70
31121;BME280;17770;45.966;13.632;2023-01-30T06:08:26;100985.22;;;12.01;58.57
31121;BME280;17770;45.966;13.632;2023-01-30T06:10:52;100985.25;;;12.00;57.87
31121;BME280;17770;45.966;13.632;2023-01-30T06:13:17;100995.59;;;12.00;58.41
31121;BME280;17770;45.966;13.632;2023-01-30T06:15:43;100990.41;;;12.00;57.87
31121;BME280;17770;45.966;13.632;2023-01-30T06:18:09;100993.03;;;11.98;58.18
31121;BME280;17770;45.966;13.632;2023-01-30T06:20:35;100993.03;;;11.98;57.85
31121;BME280;17770;45.966;13.632;2023-01-30T06:23:01;100988.75;;;11.97;58.56
31121;BME280;17770;45.966;13.632;2023-01-30T06:25:27;100985.31;;;11.97;58.44
31121;BME280;17770;45.966;13.632;2023-01-30T06:27:52;100982.72;;;11.97;58.40
31121;BME280;17770;45.966;13.632;2023-01-30T06:30:18;100980.13;;;11.97;58.54
31121;BME280;17770;45.966;13.632;2023-01-30T06:32:48;100982.72;;;11.97;58.49
31121;BME280;17770;45.966;13.632;2023-01-30T06:35:14;100983.56;;;11.97;58.17
31121;BME280;17770;45.966;13.632;2023-01-30T06:37:40;100993.94;;;11.96;57.53
31121;BME280;17770;45.966;13.632;2023-01-30T06:40:05;100995.69;;;11.95;57.53
31121;BME280;17770;45.966;13.632;2023-01-30T06:42:31;100994.84;;;11.95;58.35
31121;BME280;17770;45.966;13.632;2023-01-30T06:44:57;100994.91;;;11.93;57.69
31121;BME280;17770;45.966;13.632;2023-01-30T06:47:23;100994.84;;;11.95;57.47
31121;BME280;17770;45.966;13.632;2023-01-30T06:49:49;100995.69;;;11.95;58.53
31121;BME280;17770;45.966;13.632;2023-01-30T06:52:15;101000.06;;;11.93;57.82
31121;BME280;17770;45.966;13.632;2023-01-30T06:54:41;100988.88;;;11.93;58.49
31121;BME280;17770;45.966;13.632;2023-01-30T06:57:07;101006.09;;;11.92;57.52
31121;BME280;17770;45.966;13.632;2023-01-30T06:59:32;101006.09;;;11.92;57.58
31121;BME280;17770;45.966;13.632;2023-01-30T07:01:58;101008.69;;;11.92;57.70
31121;BME280;17770;45.966;13.632;2023-01-30T07:04:24;101008.72;;;11.91;57.46
31121;BME280;17770;45.966;13.632;2023-01-30T07:06:50;101012.16;;;11.91;57.72
31121;BME280;17770;45.966;13.632;2023-01-30T07:09:16;101007.88;;;11.90;58.35
31121;BME280;17770;45.966;13.632;2023-01-30T07:11:41;100996.66;;;11.91;57.91
31121;BME280;17770;45.966;13.632;2023-01-30T07:14:08;100988.91;;;11.91;57.99
31121;BME280;17770;45.966;13.632;2023-01-30T07:16:33;100990.56;;;11.94;58.73
31121;BME280;17770;45.966;13.632;2023-01-30T07:18:59;100997.44;;;11.95;58.54
31121;BME280;17770;45.966;13.632;2023-01-30T07:21:25;100988.81;;;11.94;58.52
31121;BME280;17770;45.966;13.632;2023-01-30T07:23:52;100989.59;;;11.98;59.57
31121;BME280;17770;45.966;13.632;2023-01-30T07:26:17;100981.69;;;12.04;60.36
31121;BME280;17770;45.966;13.632;2023-01-30T07:28:43;100973.81;;;12.08;59.73
31121;BME280;17770;45.966;13.632;2023-01-30T07:31:09;100963.41;;;12.11;60.37
31121;BME280;17770;45.966;13.632;2023-01-30T07:33:35;100954.75;;;12.12;59.98
31121;BME280;17770;45.966;13.632;2023-01-30T07:36:01;100951.25;;;12.15;60.90
31121;BME280;17770;45.966;13.632;2023-01-30T07:38:26;100961.56;;;12.16;60.38
31121;BME280;17770;45.966;13.632;2023-01-30T07:40:52;100970.94;;;12.19;60.85
31121;BME280;17770;45.966;13.632;2023-01-30T07:43:18;100980.38;;;12.21;61.52
31121;BME280;17770;45.966;13.632;2023-01-30T07:45:45;100968.22;;;12.23;60.60
31121;BME280;17770;45.966;13.632;2023-01-30T07:48:12;100959.56;;;12.26;60.83
31121;BME280;17770;45.966;13.632;2023-01-30T07:50:38;100970.72;;;12.28;61.15
31121;BME280;17770;45.966;13.632;2023-01-30T07:53:05;100984.47;;;12.28;60.25
31121;BME280;17770;45.966;13.632;2023-01-30T07:55:32;100994.78;;;12.30;61.83
31121;BME280;17770;45.966;13.632;2023-01-30T07:57:58;100985.28;;;12.30;61.34
31121;BME280;17770;45.966;13.632;2023-01-30T08:00:24;100990.41;;;12.32;60.58
31121;BME280;17770;45.966;13.632;2023-01-30T08:02:50;100995.56;;;12.33;61.68
31121;BME280;17770;45.966;13.632;2023-01-30T08:05:15;100977.41;;;12.35;61.26
31121;BME280;17770;45.966;13.632;2023-01-30T08:07:41;100983.44;;;12.35;60.63
31121;BME280;17770;45.966;13.632;2023-01-30T08:10:07;100986.03;;;12.35;61.00
31121;BME280;17770;45.966;13.632;2023-01-30T08:12:33;100986.84;;;12.37;61.64
31121;BME280;17770;45.966;13.632;2023-01-30T08:14:59;100973.00;;;12.38;61.32
31121;BME280;17770;45.966;13.632;2023-01-30T08:17:25;100966.06;;;12.40;61.58
31121;BME280;17770;45.966;13.632;2023-01-30T08:19:51;100966.91;;;12.41;61.53
31121;BME280;17770;45.966;13.632;2023-01-30T08:22:17;100970.31;;;12.43;61.90
31121;BME280;17770;45.966;13.632;2023-01-30T08:24:43;100953.03;;;12.43;61.58
31121;BME280;17770;45.966;13.632;2023-01-30T08:27:09;100959.03;;;12.45;62.45
31121;BME280;17770;45.966;13.632;2023-01-30T08:29:34;100948.66;;;12.45;62.24
31121;BME280;17770;45.966;13.632;2023-01-30T08:32:00;100935.69;;;12.47;62.42
31121;BME280;17770;45.966;13.632;2023-01-30T08:34:26;100927.94;;;12.47;62.41
31121;BME280;17770;45.966;13.632;2023-01-30T08:36:52;100927.94;;;12.47;62.92
31121;BME280;17770;45.966;13.632;2023-01-30T08:39:18;100936.56;;;12.47;62.49
31121;BME280;17770;45.966;13.632;2023-01-30T08:41:44;100926.16;;;12.49;62.68
31121;BME280;17770;45.966;13.632;2023-01-30T08:44:10;100923.56;;;12.49;62.74
31121;BME280;17770;45.966;13.632;2023-01-30T08:46:36;100925.25;;;12.50;62.69
31121;BME280;17770;45.966;13.632;2023-01-30T08:49:03;100920.94;;;12.50;62.37
31121;BME280;17770;45.966;13.632;2023-01-30T08:51:29;100926.97;;;12.51;61.69
31121;BME280;17770;45.966;13.632;2023-01-30T08:53:55;100932.97;;;12.51;61.84
31121;BME280;17770;45.966;13.632;2023-01-30T08:56:20;100939.91;;;12.51;61.81
31121;BME280;17770;45.966;13.632;2023-01-30T08:58:46;100938.09;;;12.53;62.42
31121;BME280;17770;45.966;13.632;2023-01-30T09:01:13;100935.50;;;12.53;61.48
31121;BME280;17770;45.966;13.632;2023-01-30T09:03:39;100927.75;;;12.53;61.76
31121;BME280;17770;45.966;13.632;2023-01-30T09:06:05;100931.19;;;12.53;61.75
31121;BME280;17770;45.966;13.632;2023-01-30T09:08:31;100936.38;;;12.53;61.37
31121;BME280;17770;45.966;13.632;2023-01-30T09:11:01;100926.03;;;12.53;61.82
31121;BME280;17770;45.966;13.632;2023-01-30T09:13:27;100921.72;;;12.54;61.84
31121;BME280;17770;45.966;13.632;2023-01-30T09:15:53;100924.28;;;12.54;62.19
31121;BME280;17770;45.966;13.632;2023-01-30T09:18:19;100926.88;;;12.54;61.43
31121;BME280;17770;45.966;13.632;2023-01-30T09:20:45;100920.81;;;12.55;61.95
31121;BME280;17770;45.966;13.632;2023-01-30T09:23:11;100914.81;;;12.54;61.88
31121;BME280;17770;45.966;13.632;2023-01-30T09:25:36;100907.03;;;12.54;61.81
31121;BME280;17770;45.966;13.632;2023-01-30T09:28:02;100913.03;;;12.55;61.27
31121;BME280;17770;45.966;13.632;2023-01-30T09:30:28;100925.16;;;12.54;62.28
31121;BME280;17770;45.966;13.632;2023-01-30T09:32:54;100926.84;;;12.55;60.84
31121;BME280;17770;45.966;13.632;2023-01-30T09:35:20;100924.25;;;12.55;61.24
31121;BME280;17770;45.966;13.632;2023-01-30T09:37:50;100927.69;;;12.56;61.47
31121;BME280;17770;45.966;13.632;2023-01-30T09:40:17;100921.63;;;12.57;61.16
31121;BME280;17770;45.966;13.632;2023-01-30T09:42:54;100902.66;;;12.56;61.45
31121;BME280;17770;45.966;13.632;2023-01-30T09:52:55;100880.16;;;12.58;61.91
31121;BME280;17770;45.966;13.632;2023-01-30T09:55:24;100880.16;;;12.58;60.64
31121;BME280;17770;45.966;13.632;2023-01-30T09:57:51;100880.16;;;12.58;61.18
31121;BME280;17770;45.966;13.632;2023-01-30T10:00:26;100884.44;;;12.59;61.29
31121;BME280;17770;45.966;13.632;2023-01-30T10:03:00;100875.94;;;12.56;61.01
31121;BME280;17770;45.966;13.632;2023-01-30T10:08:04;100870.13;;;12.48;60.33
31121;BME280;17770;45.966;13.632;2023-01-30T10:26:13;100859.31;;;12.35;60.72
31121;BME280;17770;45.966;13.632;2023-01-30T10:31:27;100839.56;;;12.33;60.17
31121;BME280;17770;45.966;13.632;2023-01-30T10:34:00;100817.22;;;12.30;60.86
31121;BME280;17770;45.966;13.632;2023-01-30T10:36:40;100807.78;;;12.29;59.85
31121;BME280;17770;45.966;13.632;2023-01-30T10:42:12;100800.06;;;12.28;59.82
31121;BME280;17770;45.966;13.632;2023-01-30T10:44:39;100796.63;;;12.27;59.79
31121;BME280;17770;45.966;13.632;2023-01-30T10:49:50;100771.69;;;12.25;60.26
31121;BME280;17770;45.966;13.632;2023-01-30T11:00:03;100771.78;;;12.22;59.67
31121;BME280;17770;45.966;13.632;2023-01-30T11:05:08;100767.50;;;12.21;60.00
31121;BME280;17770;45.966;13.632;2023-01-30T11:07:38;100757.22;;;12.19;59.87
31121;BME280;17770;45.966;13.632;2023-01-30T11:10:05;100748.59;;;12.19;60.12
31121;BME280;17770;45.966;13.632;2023-01-30T11:12:39;100746.94;;;12.18;59.58
31121;BME280;17770;45.966;13.632;2023-01-30T11:15:05;100742.63;;;12.17;59.52
31121;BME280;17770;45.966;13.632;2023-01-30T11:17:32;100732.25;;;12.18;59.56
31121;BME280;17770;45.966;13.632;2023-01-30T11:22:37;100723.72;;;12.16;59.25
31121;BME280;17770;45.966;13.632;2023-01-30T11:25:19;100726.34;;;12.15;59.04
31121;BME280;17770;45.966;13.632;2023-01-30T11:28:20;100722.00;;;12.15;60.01
31121;BME280;17770;45.966;13.632;2023-01-30T11:30:38;100719.47;;;12.14;60.30
31121;BME280;17770;45.966;13.632;2023-01-30T11:33:13;100714.28;;;12.14;60.03
31121;BME280;17770;45.966;13.632;2023-01-30T11:35:53;100706.53;;;12.14;59.35
31121;BME280;17770;45.966;13.632;2023-01-30T11:38:21;100699.59;;;12.16;59.67
31121;BME280;17770;45.966;13.632;2023-01-30T11:40:47;100694.47;;;12.14;59.47
31121;BME280;17770;45.966;13.632;2023-01-30T11:43:13;100684.19;;;12.13;59.93
31121;BME280;17770;45.966;13.632;2023-01-30T11:45:41;100694.50;;;12.13;58.92
31121;BME280;17770;45.966;13.632;2023-01-30T11:48:15;100697.97;;;12.12;60.22
31121;BME280;17770;45.966;13.632;2023-01-30T11:50:44;100686.75;;;12.13;60.03
31121;BME280;17770;45.966;13.632;2023-01-30T11:53:55;100674.72;;;12.12;59.38
31121;BME280;17770;45.966;13.632;2023-01-30T11:56:20;100666.09;;;12.13;59.61
31121;BME280;17770;45.966;13.632;2023-01-30T12:01:34;100646.28;;;12.12;59.84
31121;BME280;17770;45.966;13.632;2023-01-30T12:04:04;100647.19;;;12.11;59.19
31121;BME280;17770;45.966;13.632;2023-01-30T12:06:32;100650.56;;;12.13;59.78
31121;BME280;17770;45.966;13.632;2023-01-30T12:08:58;100639.44;;;12.11;59.19
31121;BME280;17770;45.966;13.632;2023-01-30T12:11:28;100628.22;;;12.10;59.73
31121;BME280;17770;45.966;13.632;2023-01-30T12:16:53;100630.81;;;12.10;59.06
31121;BME280;17770;45.966;13.632;2023-01-30T12:19:28;100614.50;;;12.10;59.27
31121;BME280;17770;45.966;13.632;2023-01-30T12:22:10;100617.06;;;12.10;59.82
31121;BME280;17770;45.966;13.632;2023-01-30T12:27:18;100610.13;;;12.10;59.21
31121;BME280;17770;45.966;13.632;2023-01-30T12:32:38;100595.50;;;12.11;59.24
31121;BME280;17770;45.966;13.632;2023-01-30T12:35:12;100585.16;;;12.11;58.96
31121;BME280;17770;45.966;13.632;2023-01-30T12:37:49;100573.13;;;12.10;59.88
31121;BME280;17770;45.966;13.632;2023-01-30T12:45:37;100556.75;;;12.09;59.42
31121;BME280;17770;45.966;13.632;2023-01-30T12:55:44;100549.88;;;12.10;59.97
31121;BME280;17770;45.966;13.632;2023-01-30T12:58:23;100541.19;;;12.11;58.92
31121;BME280;17770;45.966;13.632;2023-01-30T13:03:42;100548.06;;;12.12;59.97
31121;BME280;17770;45.966;13.632;2023-01-30T13:09:30;100543.78;;;12.11;58.81
31121;BME280;17770;45.966;13.632;2023-01-30T13:11:55;100554.19;;;12.09;59.25
31121;BME280;17770;45.966;13.632;2023-01-30T13:14:25;100558.38;;;12.12;58.84
31121;BME280;17770;45.966;13.632;2023-01-30T13:22:19;100536.88;;;12.11;59.17
31121;BME280;17770;45.966;13.632;2023-01-30T13:27:17;100530.88;;;12.11;59.61
31121;BME280;17770;45.966;13.632;2023-01-30T13:29:44;100517.03;;;12.12;58.95
31121;BME280;17770;45.966;13.632;2023-01-30T13:34:56;100517.09;;;12.10;58.71
31121;BME280;17770;45.966;13.632;2023-01-30T13:37:23;100507.66;;;12.09;59.37
31121;BME280;17770;45.966;13.632;2023-01-30T13:39:50;100505.94;;;12.10;59.76
31121;BME280;17770;45.966;13.632;2023-01-30T13:44:43;100513.69;;;12.10;59.61
31121;BME280;17770;45.966;13.632;2023-01-30T13:50:35;100511.88;;;12.12;59.25
31121;BME280;17770;45.966;13.632;2023-01-30T13:52:41;100521.31;;;12.13;58.78
31121;BME280;17770;45.966;13.632;2023-01-30T14:02:37;100503.28;;;12.11;59.36
31121;BME280;17770;45.966;13.632;2023-01-30T14:08:11;100511.88;;;12.12;59.31
31121;BME280;17770;45.966;13.632;2023-01-30T14:10:41;100509.28;;;12.12;59.39
31121;BME280;17770;45.966;13.632;2023-01-30T14:13:07;100495.47;;;12.13;59.56
31121;BME280;17770;45.966;13.632;2023-01-30T14:15:38;100491.97;;;12.14;60.18
31121;BME280;17770;45.966;13.632;2023-01-30T14:18:06;100490.31;;;12.13;60.24
31121;BME280;17770;45.966;13.632;2023-01-30T14:20:50;100479.00;;;12.15;59.50
31121;BME280;17770;45.966;13.632;2023-01-30T14:23:21;100475.59;;;12.15;59.67
31121;BME280;17770;45.966;13.632;2023-01-30T14:25:48;100480.78;;;12.15;60.13
31121;BME280;17770;45.966;13.632;2023-01-30T14:30:44;100469.56;;;12.14;59.79
31121;BME280;17770;45.966;13.632;2023-01-30T14:36:28;100461.75;;;12.16;60.28
31121;BME280;17770;45.966;13.632;2023-01-30T14:38:34;100452.28;;;12.16;59.66
31121;BME280;17770;45.966;13.632;2023-01-30T14:53:34;100460.03;;;12.16;59.81
31121;BME280;17770;45.966;13.632;2023-01-30T14:56:01;100449.63;;;12.18;59.65
31121;BME280;17770;45.966;13.632;2023-01-30T14:58:28;100451.38;;;12.17;59.44
31121;BME280;17770;45.966;13.632;2023-01-30T15:00:56;100459.13;;;12.17;59.03
31121;BME280;17770;45.966;13.632;2023-01-30T15:03:23;100449.63;;;12.18;59.61
31121;BME280;17770;45.966;13.632;2023-01-30T15:05:49;100449.63;;;12.18;60.34
31121;BME280;17770;45.966;13.632;2023-01-30T15:08:18;100459.91;;;12.19;59.81
31121;BME280;17770;45.966;13.632;2023-01-30T15:10:57;100477.16;;;12.19;59.86
31121;BME280;17770;45.966;13.632;2023-01-30T15:16:19;100484.00;;;12.20;60.34
31121;BME280;17770;45.966;13.632;2023-01-30T15:21:31;100454.75;;;12.19;59.52
31121;BME280;17770;45.966;13.632;2023-01-30T15:24:12;100460.75;;;12.20;59.76
31121;BME280;17770;45.966;13.632;2023-01-30T15:31:35;100449.59;;;12.19;59.16
31121;BME280;17770;45.966;13.632;2023-01-30T15:34:01;100450.41;;;12.20;59.95